Time;durP1;ratioP1;P1;durP2;ratioP2;P2;SDS_P1;SDS_P2;PMS_P1;PMS_P2;Temp;Humidity;BMP_temperature;BMP_pressure;BME280_temperature;BME280_humidity;BME280_pressure;Samples;Min_cycle;Max_cycle;Signal;HPM_P1;HPM_P2
2024/01/04 00:00:31;;;;;;;3.80;1.10;;;;;;;6.67;92.68;94016.88;5029171;28;20175;-78
2024/01/04 00:02:56;;;;;;;1.97;0.70;;;;;;;6.60;93.16;94026.22;5011891;28;20190;-79
2024/01/04 00:05:22;;;;;;;1.50;0.73;;;;;;;6.72;93.40;94022.38;5027093;28;20277;-80
2024/01/04 00:07:47;;;;;;;3.10;0.97;;;;;;;6.67;94.03;94028.00;5022378;28;20304;-79
2024/01/04 00:10:14;;;;;;;1.83;0.70;;;;;;;6.68;94.15;94026.22;5011035;28;20198;-77
2024/01/04 00:12:40;;;;;;;2.97;0.60;;;;;;;6.71;93.63;94037.03;5010299;28;20191;-79
2024/01/04 00:15:07;;;;;;;2.03;0.87;;;;;;;6.68;93.94;94021.88;5009468;28;20217;-79
2024/01/04 00:17:32;;;;;;;1.30;0.60;;;;;;;6.60;93.67;94001.22;5028640;28;20242;-78
2024/01/04 00:19:58;;;;;;;1.37;0.60;;;;;;;6.63;93.81;93997.53;5025857;28;20175;-77
2024/01/04 00:22:24;;;;;;;3.63;0.93;;;;;;;6.39;93.60;94017.19;5013252;28;20442;-79
2024/01/04 00:24:49;;;;;;;3.83;0.93;;;;;;;6.44;93.84;94030.38;5008444;28;20560;-80
2024/01/04 00:27:14;;;;;;;3.27;1.10;;;;;;;6.33;95.24;94025.53;5025893;28;20226;-78
2024/01/04 00:29:41;;;;;;;4.10;0.90;;;;;;;6.46;93.96;94035.41;5023355;28;20198;-77
2024/01/04 00:32:07;;;;;;;2.47;0.80;;;;;;;6.58;93.33;94010.91;5026484;28;20198;-79
2024/01/04 00:34:33;;;;;;;3.77;1.07;;;;;;;6.62;93.47;94017.34;5006835;28;20188;-80
2024/01/04 00:36:58;;;;;;;3.47;1.00;;;;;;;6.55;94.01;94025.91;5019959;28;20267;-80
2024/01/04 00:39:24;;;;;;;5.77;0.90;;;;;;;6.72;93.48;94023.19;5017843;28;20248;-76
2024/01/04 00:41:53;;;;;;;3.93;1.30;;;;;;;6.44;94.23;94011.53;5009610;28;20195;-77
2024/01/04 00:44:19;;;;;;;2.77;0.53;;;;;;;6.53;94.31;94034.59;5025226;28;20212;-79
2024/01/04 00:46:44;;;;;;;4.93;1.10;;;;;;;6.49;94.30;94033.31;5023889;28;20202;-79
2024/01/04 00:49:10;;;;;;;1.57;0.50;;;;;;;6.36;93.75;94053.59;5010346;28;20203;-80
2024/01/04 00:51:35;;;;;;;2.20;0.47;;;;;;;6.35;93.82;94051.97;5024936;28;20211;-78
2024/01/04 00:54:01;;;;;;;1.33;0.60;;;;;;;6.32;94.07;94066.97;5021753;28;20190;-80
2024/01/04 00:56:34;;;;;;;1.90;0.60;;;;;;;6.25;94.21;94072.72;5021959;28;20202;-79
2024/01/04 00:59:00;;;;;;;3.07;0.70;;;;;;;6.29;93.90;94070.66;5004864;28;20207;-78
2024/01/04 01:01:25;;;;;;;1.20;0.87;;;;;;;6.34;93.33;94059.88;5005199;28;20179;-78
2024/01/04 01:03:51;;;;;;;1.63;0.50;;;;;;;6.36;92.83;94070.81;5006448;28;20163;-79
2024/01/04 01:06:16;;;;;;;0.93;0.47;;;;;;;6.21;93.41;94061.13;5009414;28;20206;-80
2024/01/04 01:08:41;;;;;;;2.10;0.50;;;;;;;6.23;93.33;94069.50;5028949;28;20228;-79
2024/01/04 01:11:08;;;;;;;0.57;0.40;;;;;;;6.37;93.12;94068.09;5024169;28;20187;-79
2024/01/04 01:13:33;;;;;;;0.60;0.40;;;;;;;6.42;92.84;94071.00;5008226;28;20202;-79
2024/01/04 01:15:59;;;;;;;0.83;0.40;;;;;;;6.54;92.59;94084.41;5023871;28;20207;-78
2024/01/04 01:18:24;;;;;;;1.80;0.70;;;;;;;6.20;93.80;94074.19;5006996;28;20226;-80
2024/01/04 01:20:49;;;;;;;1.00;0.60;;;;;;;6.43;93.23;94069.22;5009179;28;20183;-80
2024/01/04 01:23:15;;;;;;;1.43;0.57;;;;;;;6.40;93.58;94082.44;5014452;28;20186;-79
2024/01/04 01:25:40;;;;;;;2.00;0.63;;;;;;;6.39;93.12;94068.75;5025178;28;20582;-79
2024/01/04 01:28:05;;;;;;;2.30;0.60;;;;;;;6.39;93.49;94076.47;5026687;28;20279;-79
2024/01/04 01:30:31;;;;;;;3.17;0.77;;;;;;;6.41;94.19;94084.06;5024177;28;20230;-79
2024/01/04 01:32:56;;;;;;;1.60;0.60;;;;;;;6.17;95.22;94085.59;5012617;28;20187;-79
2024/01/04 01:35:22;;;;;;;1.03;0.40;;;;;;;6.34;94.63;94109.66;5024275;28;20225;-79
2024/01/04 01:37:47;;;;;;;1.40;0.70;;;;;;;6.33;94.87;94120.94;5004790;28;20207;-77
2024/01/04 01:40:12;;;;;;;1.77;0.70;;;;;;;6.35;95.13;94134.47;5003037;28;20199;-79
2024/01/04 01:42:38;;;;;;;3.33;0.80;;;;;;;6.15;95.80;94120.22;5007476;28;20187;-79
2024/01/04 01:45:03;;;;;;;1.83;0.50;;;;;;;6.24;96.02;94127.84;5022805;28;20179;-78
2024/01/04 01:47:29;;;;;;;0.63;0.23;;;;;;;6.24;93.79;94112.38;5022536;28;20228;-80
2024/01/04 01:49:54;;;;;;;0.27;0.27;;;;;;;6.08;93.42;94106.34;5022365;28;20197;-79
2024/01/04 01:52:21;;;;;;;1.07;0.40;;;;;;;5.85;93.90;94090.63;5023935;28;20189;-79
2024/01/04 01:54:47;;;;;;;2.87;0.60;;;;;;;6.17;92.89;94113.13;5002180;28;20249;-79
2024/01/04 01:57:14;;;;;;;1.60;0.40;;;;;;;6.18;93.63;94122.50;5022140;28;20261;-79
2024/01/04 01:59:39;;;;;;;1.13;0.57;;;;;;;6.25;93.04;94102.84;5005045;28;20665;-79
2024/01/04 02:02:05;;;;;;;0.53;0.40;;;;;;;6.40;92.14;94106.47;5021125;28;20207;-79
2024/01/04 02:04:31;;;;;;;1.47;0.50;;;;;;;6.17;93.26;94105.41;5022447;28;20193;-78
2024/01/04 02:06:56;;;;;;;1.53;0.43;;;;;;;6.41;92.02;94107.25;5022286;28;20294;-80
2024/01/04 02:09:22;;;;;;;3.00;0.50;;;;;;;6.35;91.86;94126.75;5025945;28;20631;-78
2024/01/04 02:11:47;;;;;;;0.73;0.40;;;;;;;6.64;90.28;94122.97;5003340;28;20179;-79
2024/01/04 02:14:12;;;;;;;0.90;0.60;;;;;;;6.33;90.99;94131.25;5020675;28;20225;-80
2024/01/04 02:16:38;;;;;;;2.63;0.90;;;;;;;6.36;90.96;94146.44;5003078;28;20340;-80
2024/01/04 02:19:05;;;;;;;0.67;0.40;;;;;;;6.48;90.83;94137.44;5003184;28;20274;-79
2024/01/04 02:21:30;;;;;;;0.60;0.60;;;;;;;6.46;91.62;94166.94;5019932;28;20179;-79
2024/01/04 02:23:56;;;;;;;1.90;0.50;;;;;;;6.30;92.05;94159.13;5024066;28;20239;-79
2024/01/04 02:26:21;;;;;;;0.80;0.40;;;;;;;6.28;92.20;94151.56;5002735;28;20180;-79
2024/01/04 02:28:46;;;;;;;1.80;0.60;;;;;;;6.53;91.40;94158.38;5021689;28;20199;-79
2024/01/04 02:31:12;;;;;;;1.73;0.50;;;;;;;6.40;91.81;94173.50;5021712;28;20191;-80
2024/01/04 02:33:37;;;;;;;3.13;0.57;;;;;;;6.49;91.46;94171.75;5026382;28;20637;-78
2024/01/04 02:36:02;;;;;;;1.33;0.47;;;;;;;6.58;90.88;94170.81;5004763;28;20226;-79
2024/01/04 02:38:28;;;;;;;2.20;0.50;;;;;;;6.63;90.45;94162.63;5019300;28;20214;-79
2024/01/04 02:40:53;;;;;;;2.83;0.50;;;;;;;6.36;91.41;94172.22;5004512;28;20724;-78
2024/01/04 02:43:19;;;;;;;0.40;0.40;;;;;;;6.45;90.60;94184.16;5025769;28;20262;-79
2024/01/04 02:45:44;;;;;;;2.80;0.60;;;;;;;6.48;90.93;94165.78;5004764;28;20678;-79
2024/01/04 02:48:09;;;;;;;1.30;0.50;;;;;;;6.56;90.29;94185.66;5023039;28;20203;-78
2024/01/04 02:50:35;;;;;;;0.90;0.60;;;;;;;6.57;90.68;94176.94;5021753;28;20262;-79
2024/01/04 02:53:00;;;;;;;1.23;0.40;;;;;;;6.64;90.25;94179.72;5022642;28;20182;-79
2024/01/04 02:55:25;;;;;;;1.77;0.67;;;;;;;6.52;90.65;94182.56;5004736;28;20207;-79
2024/01/04 02:57:51;;;;;;;2.03;0.50;;;;;;;6.64;90.59;94166.81;5006292;28;20209;-79
2024/01/04 03:00:17;;;;;;;4.10;1.20;;;;;;;6.53;91.72;94186.75;5023775;28;20209;-80
2024/01/04 03:02:43;;;;;;;1.90;0.80;;;;;;;6.69;91.63;94185.19;5022182;28;20182;-79
2024/01/04 03:05:08;;;;;;;6.40;4.43;;;;;;;6.38;92.26;94175.44;5020973;28;20187;-79
2024/01/04 03:07:34;;;;;;;2.20;0.90;;;;;;;6.59;92.05;94179.38;5007657;28;20316;-79
2024/01/04 03:10:00;;;;;;;1.53;0.70;;;;;;;6.55;92.74;94199.53;5021538;28;20238;-78
2024/01/04 03:12:26;;;;;;;2.10;0.80;;;;;;;6.74;91.79;94204.41;5002457;28;20194;-80
2024/01/04 03:14:51;;;;;;;2.17;1.10;;;;;;;6.60;92.78;94201.59;5002191;28;20207;-79
2024/01/04 03:17:20;;;;;;;3.97;0.90;;;;;;;6.51;91.59;94203.34;5021905;28;20266;-79
2024/01/04 03:19:45;;;;;;;4.20;1.00;;;;;;;6.54;91.77;94195.31;5005137;28;20266;-79
2024/01/04 03:22:10;;;;;;;3.63;0.70;;;;;;;6.72;91.51;94202.97;5003671;28;20207;-78
2024/01/04 03:24:36;;;;;;;2.30;0.73;;;;;;;6.75;91.28;94200.88;5026776;28;20179;-78
2024/01/04 03:27:01;;;;;;;3.83;0.70;;;;;;;6.71;91.23;94204.69;5031764;28;20247;-79
2024/01/04 03:29:26;;;;;;;3.07;0.60;;;;;;;6.70;90.48;94208.25;5014853;28;20182;-80
2024/01/04 03:31:52;;;;;;;2.57;0.90;;;;;;;6.81;90.52;94196.84;5016289;28;20228;-80
2024/01/04 03:34:17;;;;;;;4.10;0.70;;;;;;;6.62;90.33;94202.25;5030994;28;20199;-80
2024/01/04 03:36:42;;;;;;;3.47;0.80;;;;;;;6.80;89.54;94205.53;5012361;28;20207;-79
2024/01/04 03:39:09;;;;;;;5.60;0.93;;;;;;;6.78;89.76;94218.59;5027879;28;20210;-80
2024/01/04 03:41:34;;;;;;;5.07;0.90;;;;;;;6.91;89.00;94217.38;5030967;28;20183;-79
2024/01/04 03:43:59;;;;;;;1.70;0.60;;;;;;;6.83;89.72;94231.03;5015201;28;20218;-80
2024/01/04 03:46:25;;;;;;;5.20;0.90;;;;;;;6.77;90.21;94231.66;5032719;28;20199;-79
2024/01/04 03:48:50;;;;;;;4.13;0.87;;;;;;;6.80;90.11;94221.84;5028520;28;20199;-80
2024/01/04 03:51:15;;;;;;;3.33;0.93;;;;;;;6.87;89.99;94234.91;5030094;28;20187;-79
2024/01/04 03:53:41;;;;;;;5.23;1.10;;;;;;;6.69;90.77;94219.53;5029996;28;20214;-79
2024/01/04 03:56:06;;;;;;;5.23;1.80;;;;;;;6.75;90.82;94234.41;5009112;28;20213;-80
2024/01/04 03:58:32;;;;;;;4.30;1.00;;;;;;;6.77;90.52;94227.31;5029446;28;20325;-80
2024/01/04 04:00:58;;;;;;;2.00;1.00;;;;;;;6.89;90.41;94245.06;5027428;28;20183;-80
2024/01/04 04:03:23;;;;;;;6.23;1.10;;;;;;;6.84;90.18;94237.81;5028610;28;20187;-79
2024/01/04 04:05:49;;;;;;;3.77;0.80;;;;;;;6.82;89.50;94252.66;5009445;28;20641;-79
2024/01/04 04:08:14;;;;;;;5.37;1.00;;;;;;;7.00;89.03;94260.28;5028900;28;20356;-79
2024/01/04 04:10:40;;;;;;;4.57;1.20;;;;;;;6.95;88.78;94257.34;5009644;28;20182;-79
2024/01/04 04:13:06;;;;;;;2.43;0.90;;;;;;;6.83;88.12;94262.00;5024816;28;20187;-80
2024/01/04 04:15:31;;;;;;;4.93;1.43;;;;;;;7.02;87.68;94271.25;5024289;28;20230;-78
2024/01/04 04:17:57;;;;;;;4.00;0.90;;;;;;;6.68;88.50;94235.97;5007234;28;20211;-79
2024/01/04 04:20:22;;;;;;;2.80;1.20;;;;;;;6.95;87.51;94265.91;5026652;28;20246;-80
2024/01/04 04:22:47;;;;;;;5.03;1.30;;;;;;;6.97;87.41;94268.31;5006308;28;20179;-79
2024/01/04 04:25:13;;;;;;;2.27;0.70;;;;;;;6.96;87.39;94272.69;5010093;28;20199;-78
2024/01/04 04:27:38;;;;;;;4.10;0.90;;;;;;;7.14;86.96;94274.34;5008246;28;20207;-80
2024/01/04 04:30:05;;;;;;;5.60;0.90;;;;;;;7.01;87.22;94288.53;5007698;28;20399;-78
2024/01/04 04:32:30;;;;;;;8.30;1.00;;;;;;;7.08;87.56;94279.19;5029519;28;20196;-80
2024/01/04 04:34:56;;;;;;;6.03;1.60;;;;;;;6.95;88.21;94286.56;5008876;28;20230;-78
2024/01/04 04:37:22;;;;;;;3.67;0.90;;;;;;;6.94;87.33;94277.19;5007813;28;20257;-79
2024/01/04 04:39:47;;;;;;;4.53;0.83;;;;;;;6.80;87.76;94288.09;5023857;28;20668;-78
2024/01/04 04:42:13;;;;;;;2.60;0.60;;;;;;;7.04;86.98;94285.63;5025240;28;20198;-80
2024/01/04 04:44:38;;;;;;;2.17;0.90;;;;;;;7.06;87.49;94277.72;5025093;28;20290;-79
2024/01/04 04:47:03;;;;;;;4.00;0.93;;;;;;;6.83;88.20;94295.56;5003651;28;20685;-80
2024/01/04 04:49:29;;;;;;;3.97;0.90;;;;;;;6.72;89.15;94273.41;5021943;28;20193;-79
2024/01/04 04:51:54;;;;;;;2.93;0.83;;;;;;;6.73;90.10;94290.53;5005632;28;20212;-79
2024/01/04 04:54:20;;;;;;;5.70;1.03;;;;;;;6.90;89.16;94312.03;5021063;28;20241;-80
2024/01/04 04:56:45;;;;;;;5.90;0.80;;;;;;;7.00;89.61;94293.84;5016718;28;20203;-80
2024/01/04 04:59:12;;;;;;;3.20;1.10;;;;;;;6.90;89.69;94293.97;5005933;28;20178;-79
2024/01/04 05:01:38;;;;;;;2.60;0.83;;;;;;;6.98;90.05;94304.34;5018737;28;20657;-80
2024/01/04 05:04:04;;;;;;;2.37;0.70;;;;;;;6.88;90.41;94298.47;5018542;28;20779;-79
2024/01/04 05:06:29;;;;;;;1.33;0.50;;;;;;;6.66;90.88;94317.09;5020779;28;20227;-80
2024/01/04 05:08:55;;;;;;;3.97;0.90;;;;;;;6.61;92.04;94330.44;5005017;28;20215;-78
2024/01/04 05:11:20;;;;;;;2.70;0.80;;;;;;;6.66;91.43;94319.66;5003682;28;20182;-79
2024/01/04 05:13:45;;;;;;;4.80;1.50;;;;;;;6.58;91.67;94332.50;5026746;28;20187;-80
2024/01/04 05:16:11;;;;;;;2.17;0.70;;;;;;;6.59;91.54;94331.53;5029800;28;20209;-79
2024/01/04 05:18:36;;;;;;;2.30;0.70;;;;;;;6.78;91.29;94339.88;5029853;28;20207;-79
2024/01/04 05:21:02;;;;;;;3.97;1.00;;;;;;;6.49;91.60;94326.50;5011677;28;20597;-80
2024/01/04 05:23:27;;;;;;;3.83;1.00;;;;;;;6.52;90.55;94339.88;5031683;28;20723;-80
2024/01/04 05:25:52;;;;;;;2.83;0.93;;;;;;;6.55;91.15;94349.09;5008354;28;20552;-79
2024/01/04 05:28:18;;;;;;;2.83;0.77;;;;;;;6.43;91.40;94358.84;5002571;28;20207;-78
2024/01/04 05:30:43;;;;;;;4.17;1.17;;;;;;;6.73;90.19;94342.13;5001593;28;20187;-78
2024/01/04 05:33:08;;;;;;;2.17;1.00;;;;;;;6.78;90.11;94351.97;5021566;28;20218;-78
2024/01/04 05:35:34;;;;;;;5.53;1.20;;;;;;;6.66;90.77;94348.03;5020788;28;20595;-79
2024/01/04 05:37:59;;;;;;;3.87;1.23;;;;;;;6.74;90.34;94361.78;5001674;28;20206;-79
2024/01/04 05:40:24;;;;;;;3.77;0.90;;;;;;;6.45;90.51;94375.00;5001536;28;20186;-78
2024/01/04 05:42:50;;;;;;;3.13;0.97;;;;;;;6.60;90.47;94377.00;5002996;28;20191;-79
2024/01/04 05:45:15;;;;;;;6.93;1.00;;;;;;;6.57;89.94;94391.03;5021330;28;20270;-79
2024/01/04 05:47:40;;;;;;;3.77;1.00;;;;;;;6.71;89.66;94384.50;4999064;28;20237;-77
2024/01/04 05:50:06;;;;;;;4.10;1.23;;;;;;;6.67;89.50;94376.25;5026163;28;20179;-79
2024/01/04 05:52:32;;;;;;;4.87;1.00;;;;;;;6.82;88.34;94389.41;5046683;28;20197;-79
2024/01/04 05:54:57;;;;;;;3.57;1.23;;;;;;;6.60;89.86;94393.28;5034265;28;20202;-79
2024/01/04 05:57:27;;;;;;;2.33;1.00;;;;;;;6.69;89.08;94391.56;5035071;28;20285;-78
2024/01/04 05:59:53;;;;;;;3.80;1.20;;;;;;;6.59;89.45;94389.09;5032051;28;20187;-79
2024/01/04 06:02:18;;;;;;;2.63;0.63;;;;;;;6.62;89.11;94385.41;5032658;28;20178;-79
2024/01/04 06:04:44;;;;;;;4.30;1.27;;;;;;;6.79;88.34;94400.03;5014261;28;20183;-78
2024/01/04 06:07:09;;;;;;;5.83;1.10;;;;;;;6.61;89.49;94396.69;5031294;28;20207;-80
2024/01/04 06:09:34;;;;;;;4.17;1.10;;;;;;;6.69;89.26;94402.69;5033672;28;20191;-79
2024/01/04 06:12:00;;;;;;;2.50;0.80;;;;;;;6.39;90.67;94387.69;5030174;28;20179;-80
2024/01/04 06:14:25;;;;;;;4.30;1.27;;;;;;;6.59;89.99;94414.91;5014715;28;20266;-78
2024/01/04 06:16:50;;;;;;;2.07;1.10;;;;;;;6.49;90.19;94421.91;5011577;28;20253;-80
2024/01/04 06:19:16;;;;;;;1.73;1.10;;;;;;;6.81;89.66;94413.59;5032983;28;20186;-78
2024/01/04 06:21:41;;;;;;;5.17;1.20;;;;;;;6.66;90.17;94409.94;5028287;28;20185;-78
2024/01/04 06:24:07;;;;;;;3.00;0.80;;;;;;;6.70;88.80;94424.16;5029758;28;20194;-80
2024/01/04 06:26:32;;;;;;;4.23;0.87;;;;;;;6.55;89.50;94431.66;5028907;28;20179;-78
2024/01/04 06:28:57;;;;;;;3.67;1.10;;;;;;;6.53;90.40;94430.97;5012407;28;20215;-78
2024/01/04 06:31:23;;;;;;;5.07;1.37;;;;;;;6.61;91.05;94441.34;5012558;28;20191;-79
2024/01/04 06:33:51;;;;;;;3.63;1.20;;;;;;;6.57;90.48;94432.31;5012447;28;20677;-78
2024/01/04 06:36:17;;;;;;;4.57;0.93;;;;;;;6.77;89.53;94453.56;5012888;28;20207;-78
2024/01/04 06:38:42;;;;;;;2.73;1.10;;;;;;;6.60;90.05;94439.72;5029585;28;20215;-78
2024/01/04 06:41:08;;;;;;;2.60;1.10;;;;;;;6.66;90.57;94446.06;5010234;28;20213;-78
2024/01/04 06:43:33;;;;;;;4.27;1.10;;;;;;;6.36;91.60;94452.44;5028706;28;20171;-78
2024/01/04 06:45:59;;;;;;;5.03;1.20;;;;;;;6.23;92.58;94463.13;5027782;28;20193;-78
2024/01/04 06:48:24;;;;;;;1.90;0.97;;;;;;;6.44;93.01;94473.13;5025065;28;20198;-79
2024/01/04 06:50:50;;;;;;;3.87;1.23;;;;;;;6.63;92.57;94469.59;5012234;28;20218;-79
2024/01/04 06:53:15;;;;;;;5.07;1.30;;;;;;;6.51;92.92;94480.13;5029711;28;20714;-79
2024/01/04 06:55:41;;;;;;;3.73;1.20;;;;;;;6.39;92.87;94475.34;5025652;28;20199;-78
2024/01/04 06:58:08;;;;;;;3.13;1.10;;;;;;;6.23;93.98;94473.44;5026890;28;20207;-77
2024/01/04 07:00:33;;;;;;;3.73;1.10;;;;;;;6.30;93.90;94479.63;5028940;28;20210;-79
2024/01/04 07:02:59;;;;;;;3.73;1.13;;;;;;;6.47;92.76;94480.59;5008711;28;20245;-79
2024/01/04 07:05:24;;;;;;;3.30;1.20;;;;;;;6.46;93.41;94494.44;5024683;28;20194;-79
2024/01/04 07:07:50;;;;;;;3.63;1.50;;;;;;;6.65;92.80;94507.19;5026035;28;20246;-80
2024/01/04 07:10:15;;;;;;;3.33;1.00;;;;;;;6.43;93.63;94505.84;5027383;28;20191;-79
2024/01/04 07:12:43;;;;;;;6.10;1.40;;;;;;;6.47;93.42;94503.78;5006779;28;20209;-79
2024/01/04 07:15:09;;;;;;;6.60;1.67;;;;;;;6.46;92.47;94510.72;5025989;28;20199;-78
2024/01/04 07:17:34;;;;;;;3.77;1.07;;;;;;;6.30;93.67;94499.44;5022072;28;20199;-78
2024/01/04 07:19:59;;;;;;;3.37;1.17;;;;;;;6.42;92.99;94506.00;5006400;28;20237;-79
2024/01/04 07:22:25;;;;;;;1.53;0.83;;;;;;;6.35;92.87;94510.94;5005902;28;20214;-78
2024/01/04 07:24:50;;;;;;;7.00;1.70;;;;;;;6.42;91.81;94496.50;5025514;28;20183;-78
2024/01/04 07:27:16;;;;;;;4.93;1.70;;;;;;;6.51;91.11;94480.13;5023219;28;20199;-79
2024/01/04 07:29:41;;;;;;;5.83;1.50;;;;;;;6.29;90.75;94488.31;5023241;28;20183;-78
2024/01/04 07:32:06;;;;;;;11.13;2.10;;;;;;;6.40;89.57;94482.13;5003999;28;20179;-78
2024/01/04 07:34:33;;;;;;;7.80;1.67;;;;;;;6.46;88.85;94492.66;5027276;28;20191;-82
2024/01/04 07:36:59;;;;;;;9.10;1.83;;;;;;;6.45;89.06;94498.78;5004732;28;20760;-78
2024/01/04 07:39:25;;;;;;;6.20;1.57;;;;;;;6.32;88.28;94487.22;5021053;28;20306;-78
2024/01/04 07:41:51;;;;;;;4.83;1.50;;;;;;;6.36;88.18;94515.16;5018248;28;20241;-79
2024/01/04 07:44:16;;;;;;;5.73;1.27;;;;;;;6.30;87.13;94513.16;5010457;28;20720;-79
2024/01/04 07:46:42;;;;;;;7.63;1.60;;;;;;;6.49;86.63;94505.25;5018157;28;20493;-78
2024/01/04 07:49:07;;;;;;;5.20;1.77;;;;;;;6.47;86.70;94496.88;5021656;28;20255;-78
2024/01/04 07:51:36;;;;;;;8.23;1.70;;;;;;;6.52;85.45;94504.16;5021205;28;20661;-78
2024/01/04 07:54:02;;;;;;;7.20;1.33;;;;;;;6.58;85.25;94518.22;5021050;28;20179;-78
2024/01/04 07:56:27;;;;;;;3.73;1.77;;;;;;;6.45;85.40;94510.88;5018309;28;20214;-78
2024/01/04 07:58:53;;;;;;;7.57;1.50;;;;;;;6.43;84.78;94523.91;5005453;28;20214;-78
2024/01/04 08:01:18;;;;;;;4.60;1.30;;;;;;;6.62;84.21;94511.81;5006047;28;20202;-78
2024/01/04 08:03:44;;;;;;;6.43;1.67;;;;;;;6.42;82.79;94506.81;5004049;28;20175;-76
2024/01/04 08:06:09;;;;;;;5.50;1.50;;;;;;;6.58;83.31;94513.06;5004028;28;20261;-79
2024/01/04 08:08:35;;;;;;;7.27;1.50;;;;;;;6.34;83.11;94513.66;5007425;28;20216;-78
2024/01/04 08:11:01;;;;;;;4.70;1.33;;;;;;;6.43;82.49;94525.66;5021189;28;20179;-78
2024/01/04 08:13:26;;;;;;;5.23;1.60;;;;;;;6.51;82.40;94525.75;5020369;28;20560;-78
2024/01/04 08:15:52;;;;;;;11.80;1.80;;;;;;;6.39;82.72;94517.44;5020301;28;20240;-78
2024/01/04 08:18:20;;;;;;;3.70;1.20;;;;;;;6.37;82.23;94529.66;5020019;28;20238;-77
2024/01/04 08:20:45;;;;;;;6.63;1.57;;;;;;;6.39;82.72;94532.09;5020432;28;20357;-77
2024/01/04 08:23:12;;;;;;;5.17;1.50;;;;;;;6.42;81.74;94529.19;5003280;28;20724;-79
2024/01/04 08:25:37;;;;;;;5.93;1.30;;;;;;;6.44;81.70;94522.13;5021910;28;20172;-78
2024/01/04 08:28:02;;;;;;;4.13;0.97;;;;;;;6.39;82.16;94538.06;5018005;28;20336;-78
2024/01/04 08:30:28;;;;;;;7.07;1.23;;;;;;;6.65;81.50;94540.72;5021544;28;20195;-78
2024/01/04 08:32:53;;;;;;;10.43;1.93;;;;;;;6.77;81.45;94539.50;5020652;28;20215;-78
2024/01/04 08:35:18;;;;;;;3.47;1.00;;;;;;;7.05;80.91;94547.94;5012444;28;20217;-79
2024/01/04 08:37:45;;;;;;;7.90;1.90;;;;;;;6.94;81.04;94557.72;5011762;28;20265;-78
2024/01/04 08:40:12;;;;;;;7.63;1.53;;;;;;;6.80;80.14;94546.97;5013803;28;20246;-78
2024/01/04 08:42:37;;;;;;;4.60;1.23;;;;;;;6.95;79.87;94557.56;5014281;28;20622;-80
2024/01/04 08:45:26;;;;;;;10.23;2.20;;;;;;;6.95;80.25;94554.97;5002469;28;20210;-85
2024/01/04 08:47:51;;;;;;;5.93;1.60;;;;;;;6.94;80.41;94566.25;4989452;28;20230;-77
2024/01/04 08:50:16;;;;;;;3.90;1.20;;;;;;;6.82;80.95;94575.22;5018791;28;20218;-78
2024/01/04 08:52:42;;;;;;;6.97;1.40;;;;;;;6.70;80.84;94560.88;5029177;28;20714;-78
2024/01/04 08:55:07;;;;;;;5.90;1.90;;;;;;;6.77;80.59;94572.25;5026225;28;20243;-78
2024/01/04 08:57:33;;;;;;;7.37;1.37;;;;;;;6.53;79.99;94575.41;5034719;28;20230;-78
2024/01/04 08:59:59;;;;;;;7.00;1.70;;;;;;;6.64;79.63;94571.81;5006062;28;20734;-77
2024/01/04 09:02:24;;;;;;;6.27;1.43;;;;;;;6.75;79.50;94571.59;5007538;28;20255;-77
2024/01/04 09:04:49;;;;;;;4.10;1.27;;;;;;;6.74;78.52;94570.78;5002718;28;20191;-79
2024/01/04 09:07:15;;;;;;;5.90;1.53;;;;;;;6.94;78.12;94584.34;5004724;28;20203;-78
2024/01/04 09:09:40;;;;;;;6.43;1.60;;;;;;;7.02;78.12;94597.31;5039532;28;20186;-78
2024/01/04 09:12:06;;;;;;;5.07;1.40;;;;;;;6.95;78.12;94573.03;5001535;28;20218;-79
2024/01/04 09:14:31;;;;;;;6.07;2.30;;;;;;;7.08;77.52;94601.06;5018896;28;20183;-78
2024/01/04 09:16:56;;;;;;;7.07;1.40;;;;;;;7.19;77.12;94600.03;4989531;28;20681;-79
2024/01/04 09:19:22;;;;;;;6.50;1.20;;;;;;;7.05;78.24;94615.06;5011249;28;20332;-77
2024/01/04 09:21:49;;;;;;;6.67;2.30;;;;;;;6.95;78.53;94608.38;5027338;28;20270;-78
2024/01/04 09:24:15;;;;;;;5.63;1.57;;;;;;;6.87;78.45;94613.47;5013204;28;20187;-77
2024/01/04 09:26:41;;;;;;;6.53;1.40;;;;;;;6.77;78.49;94613.53;5027458;28;20175;-77
2024/01/04 09:29:07;;;;;;;3.33;1.10;;;;;;;7.00;77.77;94631.97;5015054;28;20206;-78
2024/01/04 09:31:32;;;;;;;6.47;1.60;;;;;;;7.19;77.95;94633.59;5029850;28;20190;-78
2024/01/04 09:33:57;;;;;;;5.70;1.70;;;;;;;7.16;78.00;94649.38;5032663;28;20210;-78
2024/01/04 09:36:23;;;;;;;5.00;1.70;;;;;;;7.32;78.50;94647.72;5029042;28;20257;-77
2024/01/04 09:38:49;;;;;;;8.70;2.13;;;;;;;7.27;79.76;94656.91;5011473;28;20223;-77
2024/01/04 09:41:44;;;;;;;3.77;1.17;;;;;;;6.89;80.36;94665.72;5010823;28;20755;-78
2024/01/04 09:44:11;;;;;;;4.63;1.40;;;;;;;7.10;81.25;94659.34;5016040;28;20222;-78
2024/01/04 09:46:37;;;;;;;4.70;1.20;;;;;;;6.79;82.20;94653.72;5027867;28;20179;-78
2024/01/04 09:49:04;;;;;;;4.03;1.53;;;;;;;6.80;81.45;94670.00;5026229;28;20206;-77
2024/01/04 09:51:34;;;;;;;6.83;2.17;;;;;;;6.89;82.81;94678.63;5010699;28;20266;-79
2024/01/04 09:54:01;;;;;;;3.70;1.17;;;;;;;6.38;84.56;94677.47;5016307;28;20657;-78
2024/01/04 09:56:28;;;;;;;6.97;1.83;;;;;;;6.80;83.08;94675.16;5009875;28;20249;-79
2024/01/04 09:58:53;;;;;;;4.53;1.40;;;;;;;6.70;81.96;94679.56;5027711;28;20211;-79
2024/01/04 10:01:31;;;;;;;4.90;1.83;;;;;;;6.87;82.36;94702.00;5029261;28;20187;-77
2024/01/04 10:03:59;;;;;;;5.53;1.43;;;;;;;6.55;84.13;94692.16;5024341;28;20171;-77
2024/01/04 10:06:30;;;;;;;5.47;1.73;;;;;;;6.56;84.23;94704.09;5022870;28;20704;-78
2024/01/04 10:08:58;;;;;;;4.73;1.23;;;;;;;6.66;83.10;94709.22;5005125;28;20211;-77
2024/01/04 10:11:28;;;;;;;5.33;1.50;;;;;;;6.81;82.84;94710.34;5011505;28;20265;-77
2024/01/04 10:13:54;;;;;;;2.10;0.93;;;;;;;6.75;82.72;94704.00;5025902;28;20183;-78
2024/01/04 10:16:19;;;;;;;3.60;1.43;;;;;;;6.71;83.38;94712.97;5023690;28;20203;-77
2024/01/04 10:18:44;;;;;;;6.47;2.73;;;;;;;6.87;82.47;94724.44;5026375;28;20234;-79
2024/01/04 10:21:10;;;;;;;6.73;1.60;;;;;;;6.92;82.79;94711.91;5025531;28;20191;-78
2024/01/04 10:23:36;;;;;;;4.30;1.77;;;;;;;6.81;82.74;94718.09;5004338;28;20175;-79
2024/01/04 10:26:08;;;;;;;6.63;1.40;;;;;;;7.17;81.76;94723.31;5008723;28;20187;-80
2024/01/04 10:28:35;;;;;;;3.97;1.30;;;;;;;7.34;81.33;94722.50;5005814;28;20289;-79
2024/01/04 10:31:03;;;;;;;6.50;1.60;;;;;;;7.29;81.20;94716.94;5025749;28;20197;-78
2024/01/04 10:33:31;;;;;;;4.00;1.30;;;;;;;7.30;81.93;94714.22;5028863;28;20194;-82
2024/01/04 10:36:06;;;;;;;3.37;1.00;;;;;;;7.18;81.37;94722.34;5010072;28;20700;-80
2024/01/04 10:38:32;;;;;;;6.27;1.10;;;;;;;7.43;80.68;94721.59;5020540;28;20214;-78
2024/01/04 10:41:04;;;;;;;1.30;0.90;;;;;;;7.25;81.54;94731.13;5020422;28;20206;-79
2024/01/04 10:43:33;;;;;;;4.10;1.63;;;;;;;7.25;80.90;94720.81;5022289;28;20213;-80
2024/01/04 10:46:08;;;;;;;3.50;1.17;;;;;;;7.44;80.88;94730.16;5022034;28;20198;-79
2024/01/04 10:48:38;;;;;;;2.83;0.90;;;;;;;7.21;81.62;94722.84;5002499;28;20221;-79
2024/01/04 10:51:04;;;;;;;4.57;1.20;;;;;;;7.21;82.18;94727.19;5003512;28;20211;-79
2024/01/04 10:53:37;;;;;;;3.03;1.20;;;;;;;7.37;82.42;94735.09;5004135;28;20206;-80
2024/01/04 10:56:04;;;;;;;7.43;2.17;;;;;;;7.28;83.48;94736.00;5010864;28;20203;-78
2024/01/04 10:58:36;;;;;;;6.63;2.37;;;;;;;7.33;83.47;94739.78;5026688;28;20222;-78
2024/01/04 11:01:04;;;;;;;5.37;1.90;;;;;;;7.45;82.98;94745.50;5019036;28;20665;-79
2024/01/04 11:03:33;;;;;;;2.63;0.93;;;;;;;7.30;83.91;94744.41;5015710;28;20190;-79
2024/01/04 11:05:59;;;;;;;4.47;0.80;;;;;;;6.88;84.30;94739.75;5020971;28;20559;-77
2024/01/04 11:08:28;;;;;;;2.87;0.70;;;;;;;6.69;85.08;94745.84;5010713;28;20722;-77
2024/01/04 11:10:59;;;;;;;4.00;1.07;;;;;;;7.14;83.69;94733.91;5017336;28;20187;-77
2024/01/04 11:13:24;;;;;;;6.47;1.20;;;;;;;7.25;83.19;94720.81;5017664;28;20234;-77
2024/01/04 11:15:51;;;;;;;1.90;1.20;;;;;;;6.95;83.52;94717.59;5017303;28;20241;-78
2024/01/04 11:18:37;;;;;;;4.70;1.23;;;;;;;6.69;83.45;94730.38;5002490;28;20199;-77
2024/01/04 11:21:06;;;;;;;3.33;1.03;;;;;;;6.50;83.36;94728.69;5020769;28;20667;-77
2024/01/04 11:24:08;;;;;;;3.87;1.00;;;;;;;6.80;82.61;94729.34;5020398;28;20259;-78
2024/01/04 11:27:09;;;;;;;5.40;1.57;;;;;;;6.78;82.54;94733.84;5018160;28;20187;-78
2024/01/04 11:29:35;;;;;;;5.37;1.83;;;;;;;7.07;81.36;94719.03;5004350;28;20213;-78
2024/01/04 11:32:01;;;;;;;5.60;0.90;;;;;;;7.15;81.47;94720.03;5019091;28;20186;-77
2024/01/04 11:34:26;;;;;;;3.90;1.30;;;;;;;7.31;80.96;94715.03;5025328;28;20182;-78
2024/01/04 11:37:08;;;;;;;5.37;1.30;;;;;;;7.30;80.05;94714.22;5021294;28;20293;-79